createdAt,value
2023-05-18T00:00:44.034Z,99861.91
2023-05-18T00:01:45.631Z,99869.34
2023-05-18T00:02:47.503Z,99871.03
2023-05-18T00:03:49.212Z,99869.56
2023-05-18T00:04:50.944Z,99864.19
2023-05-18T00:05:52.587Z,99868.00
2023-05-18T00:06:54.602Z,99878.38
2023-05-18T00:07:56.162Z,99873.25
2023-05-18T00:08:57.688Z,99867.25
2023-05-18T00:10:00.620Z,99875.50
2023-05-18T00:11:03.779Z,99867.63
2023-05-18T00:12:05.910Z,99871.06
2023-05-18T00:13:07.513Z,99868.69
2023-05-18T00:14:09.082Z,99865.75
2023-05-18T00:15:10.830Z,99869.66
2023-05-18T00:16:12.434Z,99870.75
2023-05-18T00:17:13.995Z,99875.06
2023-05-18T00:18:15.529Z,99872.53
2023-05-18T00:19:17.270Z,99871.66
2023-05-18T00:20:19.096Z,99868.84
2023-05-18T00:21:20.679Z,99879.78
2023-05-18T00:22:22.247Z,99870.56
2023-05-18T00:23:23.979Z,99867.94
2023-05-18T00:24:25.543Z,99873.41
2023-05-18T00:25:27.190Z,99876.03
2023-05-18T00:26:28.793Z,99877.22
2023-05-18T00:27:30.844Z,99872.91
2023-05-18T00:28:32.500Z,99876.34
2023-05-18T00:29:34.062Z,99877.41
2023-05-18T00:30:35.601Z,99876.69
2023-05-18T00:31:39.276Z,99877.31
2023-05-18T00:32:41.955Z,99873.97
2023-05-18T00:33:43.806Z,99875.72
2023-05-18T00:34:45.600Z,99879.22
2023-05-18T00:35:47.267Z,99879.44
2023-05-18T00:36:48.876Z,99877.84
2023-05-18T00:37:50.407Z,99875.00
2023-05-18T00:38:51.995Z,99876.06
2023-05-18T00:39:53.604Z,99882.16
2023-05-18T00:40:55.317Z,99878.69
2023-05-18T00:41:56.860Z,99883.00
2023-05-18T00:42:59.335Z,99877.75
2023-05-18T00:44:01.258Z,99873.56
2023-05-18T00:45:03.375Z,99873.44
2023-05-18T00:46:05.034Z,99879.22
2023-05-18T00:47:06.674Z,99876.34
2023-05-18T00:48:08.244Z,99875.41
2023-05-18T00:49:11.403Z,99877.22
2023-05-18T00:50:13.028Z,99873.97
2023-05-18T00:51:14.945Z,99883.41
2023-05-18T00:52:16.572Z,99879.22
2023-05-18T00:53:18.138Z,99875.72
2023-05-18T00:54:19.796Z,99874.91
2023-05-18T00:55:21.548Z,99876.97
2023-05-18T00:56:23.230Z,99886.63
2023-05-18T00:57:24.928Z,99882.25
2023-05-18T00:58:26.561Z,99890.53
2023-05-18T00:59:29.607Z,99887.09
2023-05-18T01:00:32.145Z,99885.41
2023-05-18T01:01:34.014Z,99886.38
2023-05-18T01:02:35.729Z,99880.72
2023-05-18T01:03:38.325Z,99886.69
2023-05-18T01:04:39.957Z,99890.13
2023-05-18T01:05:41.546Z,99886.69
2023-05-18T01:06:43.356Z,99887.31
2023-05-18T01:07:44.969Z,99891.81
2023-05-18T01:08:47.548Z,99894.34
2023-05-18T01:09:49.142Z,99887.91
2023-05-18T01:10:56.048Z,99889.25
2023-05-18T01:12:07.247Z,99896.19
2023-05-18T01:13:26.508Z,99890.94
2023-05-18T01:14:44.758Z,99889.16
2023-05-18T01:15:51.621Z,99891.06
2023-05-18T01:17:25.804Z,99902.53
2023-05-18T01:18:46.748Z,99903.06
2023-05-18T01:19:50.982Z,99899.38
2023-05-18T01:21:17.457Z,99895.59
2023-05-18T01:22:33.628Z,99902.31
2023-05-18T01:24:06.623Z,99895.16
2023-05-18T01:25:39.203Z,99901.84
2023-05-18T01:26:43.533Z,99905.31
2023-05-18T01:27:46.772Z,99902.69
2023-05-18T01:28:51.615Z,99903.41
2023-05-18T01:29:55.777Z,99900.94
2023-05-18T01:30:58.024Z,99911.53
2023-05-18T01:31:59.703Z,99911.22
2023-05-18T01:33:13.704Z,99906.69
2023-05-18T01:34:15.291Z,99908.06
2023-05-18T01:35:16.865Z,99910.81
2023-05-18T01:36:18.524Z,99912.72
2023-05-18T01:37:20.148Z,99913.84
2023-05-18T01:38:23.950Z,99911.94
2023-05-18T01:39:25.651Z,99912.19
2023-05-18T01:40:35.140Z,99919.84
2023-05-18T01:41:41.793Z,99914.72
2023-05-18T01:42:51.494Z,99913.34
2023-05-18T01:44:00.131Z,99917.44
2023-05-18T01:45:09.369Z,99914.94
2023-05-18T01:46:22.090Z,99916.94
2023-05-18T01:47:25.719Z,99913.91
2023-05-18T01:48:27.647Z,99916.31
2023-05-18T01:50:14.834Z,99920.94
2023-05-18T01:51:20.251Z,99920.50
2023-05-18T01:52:42.734Z,99925.25
2023-05-18T01:53:52.801Z,99922.00
2023-05-18T01:54:57.668Z,99918.97
2023-05-18T01:56:00.711Z,99922.53
2023-05-18T01:57:05.882Z,99920.88
2023-05-18T01:58:10.024Z,99916.56
2023-05-18T01:59:12.525Z,99918.56
2023-05-18T02:00:16.665Z,99919.50
2023-05-18T02:01:18.664Z,99925.56
2023-05-18T02:02:21.603Z,99919.50
2023-05-18T02:03:23.399Z,99919.59
2023-05-18T02:04:25.036Z,99916.16
2023-05-18T02:05:26.599Z,99922.53
2023-05-18T02:06:28.179Z,99924.34
2023-05-18T02:07:29.781Z,99919.91
2023-05-18T02:08:31.369Z,99920.13
2023-05-18T02:09:32.944Z,99922.84
2023-05-18T02:10:35.205Z,99920.44
2023-05-18T02:11:36.756Z,99928.84
2023-05-18T02:12:38.374Z,99926.41
2023-05-18T02:13:39.933Z,99925.47
2023-05-18T02:14:41.568Z,99928.22
2023-05-18T02:15:43.146Z,99926.41
2023-05-18T02:16:45.151Z,99925.47
2023-05-18T02:17:46.930Z,99929.91
2023-05-18T02:18:48.816Z,99929.91
2023-05-18T02:19:50.396Z,99921.28
2023-05-18T02:21:01.057Z,99931.66
2023-05-18T02:22:02.718Z,99923.16
2023-05-18T02:23:04.304Z,99935.66
2023-05-18T02:24:06.241Z,99927.06
2023-05-18T02:25:08.627Z,99933.88
2023-05-18T02:26:11.310Z,99927.69
2023-05-18T02:27:12.920Z,99929.56
2023-05-18T02:28:14.461Z,99927.38
2023-05-18T02:29:15.999Z,99930.72
2023-05-18T02:30:17.790Z,99930.94
2023-05-18T02:31:19.443Z,99934.50
2023-05-18T02:32:21.024Z,99935.25
2023-05-18T02:33:22.558Z,99941.53
2023-05-18T02:34:25.556Z,99941.31
2023-05-18T02:35:27.270Z,99951.28
2023-05-18T02:36:29.190Z,99935.56
2023-05-18T02:37:30.920Z,99940.59
2023-05-18T02:38:32.508Z,99937.97
2023-05-18T02:39:34.248Z,99952.25
2023-05-18T02:40:35.796Z,99947.19
2023-05-18T02:41:37.392Z,99940.25
2023-05-18T02:42:39.105Z,99942.88
2023-05-18T02:43:40.705Z,99942.69
2023-05-18T02:44:43.116Z,99934.06
2023-05-18T02:45:47.357Z,99940.38
2023-05-18T02:46:49.428Z,99937.63
2023-05-18T02:47:50.999Z,99934.50
2023-05-18T02:48:52.711Z,99935.22
2023-05-18T02:49:54.411Z,99940.69
2023-05-18T02:50:56.128Z,99935.22
2023-05-18T02:51:57.769Z,99940.38
2023-05-18T02:52:59.407Z,99946.66
2023-05-18T02:54:00.989Z,99944.25
2023-05-18T02:55:08.636Z,99944.13
2023-05-18T02:56:23.922Z,99940.56
2023-05-18T02:57:39.789Z,99944.25
2023-05-18T02:58:42.425Z,99939.81
2023-05-18T02:59:50.905Z,99943.94
2023-05-18T03:00:53.374Z,99942.44
2023-05-18T03:01:54.971Z,99949.59
2023-05-18T03:02:56.719Z,99943.81
2023-05-18T03:03:58.709Z,99948.13
2023-05-18T03:05:01.054Z,99952.50
2023-05-18T03:06:02.827Z,99944.56
2023-05-18T03:07:04.807Z,99943.25
2023-05-18T03:08:06.490Z,99944.84
2023-05-18T03:09:08.131Z,99957.13
2023-05-18T03:10:15.009Z,99950.19
2023-05-18T03:11:16.830Z,99953.00
2023-05-18T03:12:18.488Z,99950.28
2023-05-18T03:13:20.819Z,99946.81
2023-05-18T03:14:22.408Z,99949.25
2023-05-18T03:15:24.046Z,99951.22
2023-05-18T03:16:25.626Z,99946.06
2023-05-18T03:17:27.283Z,99945.97
2023-05-18T03:18:28.895Z,99945.22
2023-05-18T03:19:30.688Z,99945.34
2023-05-18T03:20:32.502Z,99948.78
2023-05-18T03:21:34.244Z,99943.31
2023-05-18T03:22:36.573Z,99939.75
2023-05-18T03:23:38.187Z,99956.03
2023-05-18T03:24:41.168Z,99954.34
2023-05-18T03:25:47.281Z,99954.34
2023-05-18T03:26:48.864Z,99957.81
2023-05-18T03:27:50.618Z,99962.31
2023-05-18T03:28:52.450Z,99963.91
2023-05-18T03:29:54.115Z,99962.31
2023-05-18T03:30:55.708Z,99961.38
2023-05-18T03:31:58.425Z,99965.88
2023-05-18T03:33:03.475Z,99965.75
2023-05-18T03:34:05.467Z,99960.50
2023-05-18T03:35:07.308Z,99957.28
2023-05-18T03:36:09.183Z,99966.81
2023-05-18T03:37:11.193Z,99954.53
2023-05-18T03:38:12.783Z,99963.13
2023-05-18T03:39:18.090Z,99964.84
2023-05-18T03:40:20.364Z,99967.34
2023-05-18T03:41:23.745Z,99966.91
2023-05-18T03:42:26.868Z,99964.28
2023-05-18T03:43:28.912Z,99965.03
2023-05-18T03:44:30.690Z,99962.31
2023-05-18T03:45:32.489Z,99973.53
2023-05-18T03:46:34.383Z,99966.69
2023-05-18T03:47:36.618Z,99976.16
2023-05-18T03:48:38.221Z,99970.28
2023-05-18T03:49:39.962Z,99972.88
2023-05-18T03:50:41.599Z,99973.00
2023-05-18T03:51:43.221Z,99979.81
2023-05-18T03:52:44.852Z,99979.81
2023-05-18T03:53:46.623Z,99979.50
2023-05-18T03:54:48.963Z,99984.97
2023-05-18T03:55:50.527Z,99978.88
2023-05-18T03:56:53.431Z,99986.13
2023-05-18T03:57:55.033Z,99982.56
2023-05-18T03:58:57.238Z,99989.34
2023-05-18T03:59:58.960Z,99996.31
2023-05-18T04:01:01.582Z,99992.63
2023-05-18T04:02:03.216Z,99988.31
2023-05-18T04:03:05.094Z,99983.00
2023-05-18T04:04:06.749Z,99992.63
2023-05-18T04:05:08.868Z,99990.75
2023-05-18T04:06:10.726Z,99995.69
2023-05-18T04:07:15.452Z,99997.31
2023-05-18T04:08:17.248Z,99995.91
2023-05-18T04:09:19.246Z,99991.59
2023-05-18T04:10:20.816Z,99998.53
2023-05-18T04:11:22.402Z,99999.47
2023-05-18T04:12:24.259Z,99997.56
2023-05-18T04:13:25.869Z,100003.25
2023-05-18T04:14:27.465Z,100005.53
2023-05-18T04:15:29.414Z,100006.19
2023-05-18T04:16:31.277Z,100002.81
2023-05-18T04:17:32.940Z,100007.88
2023-05-18T04:18:34.600Z,100009.66
2023-05-18T04:19:38.198Z,100008.81
2023-05-18T04:20:40.952Z,99996.53
2023-05-18T04:21:42.501Z,99998.44
2023-05-18T04:22:46.525Z,100004.31
2023-05-18T04:23:48.399Z,100005.44
2023-05-18T04:24:50.004Z,99996.53
2023-05-18T04:25:51.616Z,100005.44
2023-05-18T04:26:53.626Z,100006.28
2023-05-18T04:27:56.330Z,100005.44
2023-05-18T04:28:59.089Z,100004.50
2023-05-18T04:30:01.053Z,100008.75
2023-05-18T04:31:02.886Z,100005.53
2023-05-18T04:32:05.804Z,100004.31
2023-05-18T04:33:07.741Z,100015.66
2023-05-18T04:34:09.463Z,100011.28
2023-05-18T04:35:11.923Z,100013.03
2023-05-18T04:36:14.504Z,100009.75
2023-05-18T04:37:16.140Z,100018.38
2023-05-18T04:38:17.751Z,100013.31
2023-05-18T04:39:19.487Z,100008.06
2023-05-18T04:40:21.083Z,100017.53
2023-05-18T04:41:23.236Z,100014.81
2023-05-18T04:42:24.809Z,100022.69
2023-05-18T04:43:26.437Z,100016.53
2023-05-18T04:44:29.423Z,100019.88
2023-05-18T04:45:34.058Z,100021.44
2023-05-18T04:46:35.770Z,100017.13
2023-05-18T04:47:37.756Z,100021.34
2023-05-18T04:48:39.658Z,100024.91
2023-05-18T04:49:41.216Z,100028.47
2023-05-18T04:50:42.784Z,100031.31
2023-05-18T04:51:44.413Z,100025.94
2023-05-18T04:52:48.345Z,100026.06
2023-05-18T04:53:51.906Z,100030.47
2023-05-18T04:54:53.513Z,100028.56
2023-05-18T04:55:55.091Z,100021.34
2023-05-18T04:56:57.280Z,100023.97
2023-05-18T04:57:59.090Z,100025.56
2023-05-18T04:59:00.799Z,100025.56
2023-05-18T05:00:04.498Z,100029.75
2023-05-18T05:01:07.359Z,100020.84
2023-05-18T05:02:08.982Z,100024.97
2023-05-18T05:03:10.686Z,100022.34
2023-05-18T05:04:13.180Z,100020.53
2023-05-18T05:05:14.755Z,100020.63
2023-05-18T05:06:16.337Z,100023.91
2023-05-18T05:07:17.991Z,100020.47
2023-05-18T05:08:21.033Z,100030.31
2023-05-18T05:09:22.620Z,100021.69
2023-05-18T05:10:24.524Z,100021.28
2023-05-18T05:11:26.088Z,100022.97
2023-05-18T05:12:27.681Z,100020.47
2023-05-18T05:13:29.322Z,100030.53
2023-05-18T05:14:30.996Z,100029.41
2023-05-18T05:15:33.123Z,100024.75
2023-05-18T05:16:35.365Z,100033.50
2023-05-18T05:17:37.396Z,100026.56
2023-05-18T05:18:42.543Z,100033.59
2023-05-18T05:19:44.189Z,100022.25
2023-05-18T05:20:46.797Z,100027.50
2023-05-18T05:21:48.522Z,100024.69
2023-05-18T05:22:50.309Z,100034.75
2023-05-18T05:23:57.390Z,100022.47
2023-05-18T05:25:00.527Z,100033.63
2023-05-18T05:26:02.134Z,100039.59
2023-05-18T05:27:04.408Z,100030.78
2023-05-18T05:28:05.991Z,100031.63
2023-05-18T05:29:08.257Z,100033.63
2023-05-18T05:30:10.110Z,100036.97
2023-05-18T05:31:12.955Z,100035.00
2023-05-18T05:32:14.534Z,100038.66
2023-05-18T05:33:17.876Z,100039.50
2023-05-18T05:34:19.470Z,100041.50
2023-05-18T05:35:21.154Z,100038.56
2023-05-18T05:36:22.903Z,100035.94
2023-05-18T05:37:24.952Z,100035.72
2023-05-18T05:38:26.711Z,100031.00
2023-05-18T05:39:28.296Z,100037.09
2023-05-18T05:40:29.903Z,100035.50
2023-05-18T05:41:32.509Z,100035.41
2023-05-18T05:42:34.438Z,100032.88
2023-05-18T05:43:37.270Z,100033.94
2023-05-18T05:44:39.274Z,100032.16
2023-05-18T05:45:41.130Z,100036.38
2023-05-18T05:46:43.758Z,100038.13
2023-05-18T05:47:46.819Z,100030.56
2023-05-18T05:48:49.493Z,100033.09
2023-05-18T05:49:51.564Z,100033.00
2023-05-18T05:50:53.464Z,100035.28
2023-05-18T05:51:55.054Z,100034.47
2023-05-18T05:52:56.621Z,100038.56
2023-05-18T05:53:59.927Z,100037.84
2023-05-18T05:55:01.538Z,100033.63
2023-05-18T05:56:04.685Z,100038.78
2023-05-18T05:57:09.336Z,100040.16
2023-05-18T05:58:11.208Z,100037.00
2023-05-18T05:59:12.967Z,100044.97
2023-05-18T06:00:14.969Z,100040.66
2023-05-18T06:01:22.675Z,100040.78
2023-05-18T06:02:25.243Z,100040.06
2023-05-18T06:03:27.301Z,100045.19
2023-05-18T06:04:30.523Z,100047.06
2023-05-18T06:05:32.556Z,100042.78
2023-05-18T06:06:34.432Z,100041.72
2023-05-18T06:07:36.194Z,100049.50
2023-05-18T06:08:37.790Z,100043.41
2023-05-18T06:09:39.359Z,100035.22
2023-05-18T06:10:40.989Z,100035.09
2023-05-18T06:11:43.265Z,100040.25
2023-05-18T06:12:44.881Z,100038.78
2023-05-18T06:13:46.506Z,100044.78
2023-05-18T06:14:48.160Z,100045.59
2023-05-18T06:15:50.370Z,100043.84
2023-05-18T06:16:52.006Z,100044.13
2023-05-18T06:17:53.640Z,100040.47
2023-05-18T06:18:56.500Z,100050.66
2023-05-18T06:19:58.180Z,100040.38
2023-05-18T06:20:59.830Z,100046.03
2023-05-18T06:22:01.845Z,100046.53
2023-05-18T06:23:07.550Z,100037.72
2023-05-18T06:24:36.399Z,100045.91
2023-05-18T06:25:57.180Z,100049.59
2023-05-18T06:27:24.650Z,100047.16
2023-05-18T06:28:43.281Z,100044.53
2023-05-18T06:30:23.214Z,100052.72
2023-05-18T06:31:49.406Z,100047.88
2023-05-18T06:33:09.063Z,100051.13
2023-05-18T06:34:11.193Z,100052.25
2023-05-18T06:35:12.791Z,100060.28
2023-05-18T06:36:15.563Z,100048.91
2023-05-18T06:37:17.724Z,100054.69
2023-05-18T06:38:19.348Z,100059.00
2023-05-18T06:39:20.987Z,100061.72
2023-05-18T06:40:22.554Z,100057.34
2023-05-18T06:41:24.185Z,100061.31
2023-05-18T06:42:25.773Z,100070.03
2023-05-18T06:43:36.471Z,100059.59
2023-05-18T06:44:58.319Z,100061.31
2023-05-18T06:46:23.681Z,100059.81
2023-05-18T06:47:32.361Z,100063.16
2023-05-18T06:48:34.011Z,100066.03
2023-05-18T06:49:35.642Z,100062.88
2023-05-18T06:50:37.489Z,100058.22
2023-05-18T06:51:39.515Z,100063.41
2023-05-18T06:52:41.202Z,100068.66
2023-05-18T06:53:43.066Z,100064.13
2023-05-18T06:54:44.812Z,100058.88
2023-05-18T06:55:46.594Z,100060.47
2023-05-18T06:56:48.227Z,100069.38
2023-05-18T06:57:50.764Z,100060.44
2023-05-18T06:58:52.361Z,100067.88
2023-05-18T06:59:53.963Z,100068.81
2023-05-18T07:00:55.963Z,100070.28
2023-05-18T07:01:57.622Z,100066.09
2023-05-18T07:02:59.484Z,100072.19
2023-05-18T07:04:01.208Z,100071.94
2023-05-18T07:05:02.986Z,100073.31
2023-05-18T07:06:05.283Z,100066.69
2023-05-18T07:07:06.920Z,100071.94
2023-05-18T07:08:08.517Z,100074.75
2023-05-18T07:09:10.102Z,100072.16
2023-05-18T07:10:11.834Z,100069.69
2023-05-18T07:11:13.463Z,100070.13
2023-05-18T07:12:15.223Z,100074.84
2023-05-18T07:13:16.816Z,100066.22
2023-05-18T07:14:18.392Z,100071.88
2023-05-18T07:15:20.009Z,100074.66
2023-05-18T07:16:21.654Z,100075.88
2023-05-18T07:17:23.257Z,100082.00
2023-05-18T07:18:24.929Z,100074.69
2023-05-18T07:19:26.548Z,100077.09
2023-05-18T07:20:28.167Z,100075.28
2023-05-18T07:21:29.757Z,100084.66
2023-05-18T07:22:31.350Z,100075.56
2023-05-18T07:23:32.967Z,100080.94
2023-05-18T07:24:34.520Z,100073.53
2023-05-18T07:25:36.110Z,100071.25
2023-05-18T07:26:37.701Z,100077.84
2023-05-18T07:27:39.282Z,100076.38
2023-05-18T07:28:40.872Z,100078.34
2023-05-18T07:29:42.462Z,100082.03
2023-05-18T07:30:44.029Z,100076.28
2023-05-18T07:31:45.625Z,100075.59
2023-05-18T07:32:47.394Z,100075.69
2023-05-18T07:33:49.016Z,100081.56
2023-05-18T07:34:50.604Z,100077.69
2023-05-18T07:35:52.206Z,100079.03
2023-05-18T07:36:53.988Z,100085.38
2023-05-18T07:37:55.942Z,100080.72
2023-05-18T07:38:57.520Z,100086.25
2023-05-18T07:39:59.081Z,100079.91
2023-05-18T07:41:00.640Z,100084.56
2023-05-18T07:42:02.338Z,100076.66
2023-05-18T07:43:03.962Z,100080.59
2023-05-18T07:44:05.542Z,100086.56
2023-05-18T07:45:07.876Z,100082.09
2023-05-18T07:46:09.473Z,100083.41
2023-05-18T07:47:11.324Z,100084.16
2023-05-18T07:48:12.965Z,100088.22
2023-05-18T07:49:14.525Z,100088.59
2023-05-18T07:50:16.107Z,100086.75
2023-05-18T07:51:17.750Z,100097.03
2023-05-18T07:52:19.272Z,100087.66
2023-05-18T07:53:20.813Z,100095.50
2023-05-18T07:54:22.404Z,100089.16
2023-05-18T07:55:23.982Z,100081.47
2023-05-18T07:56:25.672Z,100088.91
2023-05-18T07:57:27.311Z,100082.03
2023-05-18T07:58:28.856Z,100082.34
2023-05-18T07:59:30.416Z,100083.53
2023-05-18T08:00:34.001Z,100081.88
2023-05-18T08:01:35.643Z,100089.97
2023-05-18T08:02:37.381Z,100083.88
2023-05-18T08:03:39.167Z,100083.00
2023-05-18T08:04:40.801Z,100085.28
2023-05-18T08:05:42.380Z,100085.53
2023-05-18T08:06:43.935Z,100087.16
2023-05-18T08:07:45.476Z,100094.38
2023-05-18T08:08:47.067Z,100094.91
2023-05-18T08:09:48.596Z,100098.41
2023-05-18T08:10:51.350Z,100089.41
2023-05-18T08:11:53.464Z,100093.03
2023-05-18T08:12:55.069Z,100088.56
2023-05-18T08:13:56.619Z,100094.22
2023-05-18T08:14:58.211Z,100083.88
2023-05-18T08:16:10.953Z,100086.56
2023-05-18T08:17:13.381Z,100101.22
2023-05-18T08:18:15.056Z,100094.38
2023-05-18T08:19:16.757Z,100091.03
2023-05-18T08:20:18.301Z,100085.75
2023-05-18T08:21:19.877Z,100096.88
2023-05-18T08:22:21.661Z,100098.22
2023-05-18T08:23:24.783Z,100097.41
2023-05-18T08:24:26.329Z,100100.41
2023-05-18T08:25:27.883Z,100093.94
2023-05-18T08:26:29.729Z,100101.53
2023-05-18T08:27:31.288Z,100096.91
2023-05-18T08:28:32.853Z,100096.91
2023-05-18T08:29:34.388Z,100100.25
2023-05-18T08:30:35.995Z,100101.09
2023-05-18T08:31:38.601Z,100099.03
2023-05-18T08:32:40.502Z,100096.59
2023-05-18T08:33:42.149Z,100102.09
2023-05-18T08:34:43.736Z,100095.13
2023-05-18T08:35:45.304Z,100097.28
2023-05-18T08:36:46.849Z,100095.19
2023-05-18T08:37:48.413Z,100095.41
2023-05-18T08:38:49.954Z,100094.50
2023-05-18T08:39:51.498Z,100088.25
2023-05-18T08:41:02.683Z,100085.09
2023-05-18T08:42:19.187Z,100091.81
2023-05-18T08:43:21.987Z,100090.13
2023-05-18T08:44:29.554Z,100093.31
2023-05-18T08:45:44.355Z,100089.31
2023-05-18T08:46:46.279Z,100087.31
2023-05-18T08:47:50.168Z,100093.94
2023-05-18T08:48:52.561Z,100091.31
2023-05-18T08:49:56.394Z,100092.28
2023-05-18T08:51:01.251Z,100092.50
2023-05-18T08:52:04.781Z,100083.63
2023-05-18T08:53:06.495Z,100095.34
2023-05-18T08:54:10.944Z,100088.63
2023-05-18T08:55:12.743Z,100088.50
2023-05-18T08:56:15.135Z,100091.22
2023-05-18T08:57:20.327Z,100095.31
2023-05-18T08:58:32.451Z,100097.19
2023-05-18T08:59:39.753Z,100093.84
2023-05-18T09:00:41.401Z,100096.00
2023-05-18T09:01:43.178Z,100092.84
2023-05-18T09:02:47.517Z,100088.72
2023-05-18T09:03:50.365Z,100090.13
2023-05-18T09:04:52.112Z,100092.97
2023-05-18T09:05:55.720Z,100093.25
2023-05-18T09:06:57.314Z,100094.06
2023-05-18T09:07:59.416Z,100104.63
2023-05-18T09:09:02.362Z,100102.06
2023-05-18T09:10:04.338Z,100094.97
2023-05-18T09:11:06.680Z,100094.81
2023-05-18T09:12:09.512Z,100095.53
2023-05-18T09:13:12.436Z,100099.47
2023-05-18T09:14:14.216Z,100100.06
2023-05-18T09:15:16.479Z,100097.28
2023-05-18T09:16:18.805Z,100091.31
2023-05-18T09:17:20.531Z,100095.31
2023-05-18T09:18:24.458Z,100098.59
2023-05-18T09:19:27.283Z,100093.41
2023-05-18T09:20:29.626Z,100094.25
2023-05-18T09:21:32.369Z,100085.13
2023-05-18T09:22:35.228Z,100095.31
2023-05-18T09:23:39.809Z,100091.28
2023-05-18T09:24:42.072Z,100092.38
2023-05-18T09:25:45.365Z,100094.44
2023-05-18T09:26:46.990Z,100094.44
2023-05-18T09:27:48.833Z,100096.00
2023-05-18T09:28:54.234Z,100099.06
2023-05-18T09:29:57.327Z,100085.59
2023-05-18T09:30:59.256Z,100091.59
2023-05-18T09:32:04.250Z,100087.16
2023-05-18T09:33:06.072Z,100089.69
2023-05-18T09:34:07.965Z,100089.38
2023-05-18T09:35:09.692Z,100091.16
2023-05-18T09:36:11.921Z,100089.47
2023-05-18T09:37:16.597Z,100090.44
2023-05-18T09:38:21.951Z,100090.88
2023-05-18T09:39:23.696Z,100087.88
2023-05-18T09:40:28.511Z,100089.53
2023-05-18T09:41:30.090Z,100097.13
2023-05-18T09:42:42.468Z,100092.63
2023-05-18T09:43:45.549Z,100096.22
2023-05-18T09:44:47.227Z,100098.31
2023-05-18T09:45:49.621Z,100095.41
2023-05-18T09:46:56.377Z,100094.81
2023-05-18T09:47:57.985Z,100094.22
2023-05-18T09:48:59.571Z,100096.53
2023-05-18T09:50:01.141Z,100107.09
2023-05-18T09:51:05.587Z,100100.59
2023-05-18T09:52:08.084Z,100103.31
2023-05-18T09:53:10.714Z,100096.47
2023-05-18T09:54:12.246Z,100101.75
2023-05-18T09:55:19.605Z,100104.03
2023-05-18T09:56:23.245Z,100096.09
2023-05-18T09:57:24.881Z,100099.81
2023-05-18T09:58:32.185Z,100095.06
2023-05-18T09:59:36.041Z,100096.75
2023-05-18T10:00:41.018Z,100093.72
2023-05-18T10:02:03.754Z,100095.84
2023-05-18T10:03:05.436Z,100099.44
2023-05-18T10:04:07.042Z,100098.47
2023-05-18T10:05:25.741Z,100099.59
2023-05-18T10:06:28.132Z,100100.53
2023-05-18T10:07:29.706Z,100100.69
2023-05-18T10:08:31.489Z,100095.19
2023-05-18T10:09:33.089Z,100096.59
2023-05-18T10:10:38.836Z,100093.47
2023-05-18T10:11:40.390Z,100097.66
2023-05-18T10:12:42.018Z,100098.09
2023-05-18T10:13:45.282Z,100104.63
2023-05-18T10:14:47.117Z,100100.38
2023-05-18T10:15:54.909Z,100097.34
2023-05-18T10:17:07.286Z,100093.38
2023-05-18T10:18:23.877Z,100099.34
2023-05-18T10:19:26.285Z,100096.44
2023-05-18T10:20:28.095Z,100096.19
2023-05-18T10:21:33.814Z,100098.00
2023-05-18T10:22:37.267Z,100092.44
2023-05-18T10:23:40.806Z,100087.88
2023-05-18T10:24:46.041Z,100097.34
2023-05-18T10:25:49.291Z,100089.69
2023-05-18T10:26:53.663Z,100090.50
2023-05-18T10:28:00.005Z,100083.94
2023-05-18T10:29:02.306Z,100081.28
2023-05-18T10:30:08.609Z,100092.72
2023-05-18T10:31:10.706Z,100093.69
2023-05-18T10:32:13.098Z,100091.16
2023-05-18T10:33:27.799Z,100088.78
2023-05-18T10:34:32.847Z,100090.34
2023-05-18T10:35:36.284Z,100089.50
2023-05-18T10:36:38.142Z,100094.50
2023-05-18T10:37:43.349Z,100094.28
2023-05-18T10:38:46.784Z,100089.00
2023-05-18T10:39:51.465Z,100087.47
2023-05-18T10:40:57.780Z,100082.47
2023-05-18T10:42:01.284Z,100088.03
2023-05-18T10:43:04.240Z,100085.88
2023-05-18T10:44:06.643Z,100083.22
2023-05-18T10:45:10.443Z,100090.41
2023-05-18T10:46:13.776Z,100086.66
2023-05-18T10:47:15.689Z,100089.75
2023-05-18T10:48:18.986Z,100092.91
2023-05-18T10:49:22.290Z,100085.00
2023-05-18T10:50:25.473Z,100086.78
2023-05-18T10:51:30.136Z,100098.44
2023-05-18T10:52:33.057Z,100097.47
2023-05-18T10:53:35.140Z,100089.53
2023-05-18T10:54:36.997Z,100086.34
2023-05-18T10:55:38.583Z,100089.81
2023-05-18T10:56:45.673Z,100088.13
2023-05-18T10:57:58.412Z,100090.91
2023-05-18T10:59:00.245Z,100093.09
2023-05-18T11:00:02.948Z,100096.59
2023-05-18T11:01:09.163Z,100082.38
2023-05-18T11:02:13.711Z,100081.66
2023-05-18T11:03:17.778Z,100094.50
2023-05-18T11:04:26.568Z,100088.50
2023-05-18T11:05:28.185Z,100091.59
2023-05-18T11:06:29.805Z,100082.72
2023-05-18T11:07:31.450Z,100090.06
2023-05-18T11:08:33.567Z,100092.34
2023-05-18T11:09:35.143Z,100088.56
2023-05-18T11:10:44.357Z,100090.50
2023-05-18T11:11:53.675Z,100091.47
2023-05-18T11:12:55.261Z,100086.84
2023-05-18T11:14:01.788Z,100089.59
2023-05-18T11:15:04.262Z,100091.69
2023-05-18T11:16:06.727Z,100088.88
2023-05-18T11:17:19.902Z,100088.50
2023-05-18T11:18:37.793Z,100090.44
2023-05-18T11:19:39.407Z,100085.88
2023-05-18T11:20:40.962Z,100089.22
2023-05-18T11:21:42.451Z,100097.66
2023-05-18T11:22:52.786Z,100097.13
2023-05-18T11:24:22.143Z,100092.00
2023-05-18T11:25:32.512Z,100096.16
2023-05-18T11:26:39.741Z,100085.66
2023-05-18T11:27:41.654Z,100103.09
2023-05-18T11:28:43.609Z,100100.47
2023-05-18T11:29:45.476Z,100094.69
2023-05-18T11:30:48.615Z,100092.38
2023-05-18T11:31:55.302Z,100095.59
2023-05-18T11:33:25.315Z,100099.72
2023-05-18T11:34:49.651Z,100096.75
2023-05-18T11:35:57.799Z,100101.78
2023-05-18T11:36:59.417Z,100100.97
2023-05-18T11:38:09.925Z,100105.97
2023-05-18T11:39:23.181Z,100102.50
2023-05-18T11:40:44.966Z,100103.28
2023-05-18T11:42:02.332Z,100103.41
2023-05-18T11:43:03.924Z,100103.50
2023-05-18T11:44:06.564Z,100107.84
2023-05-18T11:45:10.371Z,100101.28
2023-05-18T11:46:18.501Z,100106.41
2023-05-18T11:47:20.276Z,100105.69
2023-05-18T11:48:26.106Z,100108.59
2023-05-18T11:49:50.905Z,100110.38
2023-05-18T11:50:56.720Z,100107.75
2023-05-18T11:52:08.208Z,100101.97
2023-05-18T11:53:15.758Z,100106.41
2023-05-18T11:54:17.792Z,100115.78
2023-05-18T11:55:20.949Z,100106.09
2023-05-18T11:56:25.629Z,100106.25
2023-05-18T11:57:39.329Z,100108.63
2023-05-18T11:58:40.971Z,100101.78
2023-05-18T11:59:44.516Z,100108.50
2023-05-18T12:00:48.239Z,100109.34
2023-05-18T12:01:49.990Z,100109.84
2023-05-18T12:02:51.868Z,100110.56
2023-05-18T12:03:53.779Z,100108.75
2023-05-18T12:04:58.109Z,100108.19
2023-05-18T12:06:00.500Z,100107.91
2023-05-18T12:07:05.210Z,100109.72
2023-05-18T12:08:07.768Z,100115.31
2023-05-18T12:09:09.494Z,100115.00
2023-05-18T12:10:12.930Z,100118.09
2023-05-18T12:11:14.694Z,100117.25
2023-05-18T12:12:18.177Z,100113.91
2023-05-18T12:13:20.391Z,100112.81
2023-05-18T12:14:23.259Z,100112.44
2023-05-18T12:15:24.911Z,100106.56